Waldo, Illinois
Current Conditions -  °F | °C
As of 4:15 PM on Thursday 18 Dec 2014 (Local Time) from KPNT Reporting Station
Overcast Overcast  
Wind Chill: 22°   Ceiling: 8500
Heat Index: 28°   Visibility: 10mi
Dew Point: 22°   Wind: 6mph
Humidity: 77%   Direction: 330°NNW
Pressure: 30.25"   Gusts: NA
Location:  40.7423°N, 88.8872°W
Report Text: KPNT 182215Z AUTO 33005KT 10SM SCT019 SCT080 OVC085 M02/M06 A3025 RMK AO2 T10201056
Loading
Personal Weather Stations






























Interactive Weather Map New forecast layout! Learn more

10-Day Weather Forecast

Advertisements
Track Severe Weather on mobile